Time;durP1;ratioP1;P1;durP2;ratioP2;P2;SDS_P1;SDS_P2;PMS_P1;PMS_P2;Temp;Humidity;BMP_temperature;BMP_pressure;BME280_temperature;BME280_humidity;BME280_pressure;Samples;Min_cycle;Max_cycle;Signal;HPM_P1;HPM_P2
2021/09/30 00:00:31;;;;;;;2.20;1.23;;;12.70;63.40;;;;;;5008627;28;20045;-74
2021/09/30 00:02:56;;;;;;;4.88;1.10;;;12.70;63.30;;;;;;5025170;28;20113;-74
2021/09/30 00:05:22;;;;;;;3.05;0.88;;;12.70;63.60;;;;;;5020187;28;20057;-75
2021/09/30 00:07:48;;;;;;;4.13;1.20;;;12.60;64.30;;;;;;5045425;28;20481;-75
2021/09/30 00:10:18;;;;;;;2.70;1.15;;;12.60;63.90;;;;;;5073050;28;20028;-74
2021/09/30 00:12:49;;;;;;;2.40;0.88;;;12.60;63.50;;;;;;5073022;28;20100;-74
2021/09/30 00:15:26;;;;;;;3.17;1.20;;;12.50;63.90;;;;;;5057197;28;20016;-74
2021/09/30 00:34:17;;;;;;;2.70;1.10;;;12.30;64.90;;;;;;5072107;28;20036;-76
2021/09/30 00:42:09;;;;;;;5.63;1.30;;;12.30;65.30;;;;;;5072491;28;20032;-76
2021/09/30 00:50:43;;;;;;;4.50;1.40;;;12.20;65.20;;;;;;5018369;28;20041;-76
2021/09/30 01:46:10;;;;;;;2.90;1.10;;;11.70;66.30;;;;;;5071516;28;20058;-75
2021/09/30 03:01:19;;;;;;;4.65;1.55;;;11.10;67.40;;;;;;4958465;28;20527;-76
2021/09/30 03:03:46;;;;;;;3.78;1.40;;;11.10;67.20;;;;;;4958675;28;20125;-76
2021/09/30 03:06:12;;;;;;;2.30;1.20;;;11.10;67.10;;;;;;4939319;29;20111;-76
2021/09/30 03:08:45;;;;;;;3.33;1.20;;;11.10;67.50;;;;;;4965748;28;20039;-76
2021/09/30 03:11:12;;;;;;;1.73;0.93;;;11.00;67.50;;;;;;4958816;28;20097;-74
2021/09/30 03:13:39;;;;;;;3.60;1.13;;;11.10;67.40;;;;;;4958029;28;20680;-75
2021/09/30 03:16:23;;;;;;;2.45;1.40;;;11.00;67.50;;;;;;4958484;28;20019;-75
2021/09/30 03:18:54;;;;;;;2.95;0.98;;;11.00;67.50;;;;;;4958101;28;20099;-75
2021/09/30 03:24:06;;;;;;;3.13;1.13;;;11.00;67.80;;;;;;4952512;28;20090;-74
2021/09/30 03:26:32;;;;;;;3.08;1.08;;;10.90;67.80;;;;;;4958336;28;20488;-74
2021/09/30 03:29:00;;;;;;;2.47;0.98;;;10.90;68.10;;;;;;4958063;28;20039;-74
2021/09/30 03:31:26;;;;;;;3.95;1.23;;;10.90;68.10;;;;;;4970700;28;20072;-74
2021/09/30 03:33:53;;;;;;;3.58;1.10;;;10.90;68.20;;;;;;5025609;28;20033;-76
2021/09/30 03:36:19;;;;;;;2.05;1.00;;;10.80;68.10;;;;;;5059137;28;20052;-75
2021/09/30 03:38:44;;;;;;;3.50;1.20;;;10.80;68.30;;;;;;5074229;28;20098;-74
2021/09/30 03:41:10;;;;;;;3.67;1.20;;;10.80;68.50;;;;;;5073319;28;20499;-74
2021/09/30 03:43:36;;;;;;;3.10;1.10;;;10.70;68.50;;;;;;5073818;28;20017;-74
2021/09/30 03:46:01;;;;;;;3.53;1.33;;;10.70;67.90;;;;;;5073711;28;20035;-74
2021/09/30 03:48:27;;;;;;;3.13;1.15;;;10.70;68.20;;;;;;5073200;28;20473;-74
2021/09/30 04:01:16;;;;;;;;;;;10.50;68.50;;;;;;5073936;28;20086;-75
2021/09/30 04:03:42;;;;;;;3.72;1.50;;;10.50;67.20;;;;;;5055243;28;20262;-75
2021/09/30 04:06:08;;;;;;;3.38;1.08;;;10.50;68.90;;;;;;5073049;28;20024;-74
2021/09/30 04:08:35;;;;;;;2.67;1.05;;;10.50;68.30;;;;;;5073649;28;20039;-76
2021/09/30 04:11:00;;;;;;;2.75;0.98;;;10.50;68.00;;;;;;5072350;28;20031;-74
2021/09/30 04:13:26;;;;;;;3.38;1.10;;;10.50;68.10;;;;;;5058899;28;20036;-75
2021/09/30 04:15:52;;;;;;;4.57;1.05;;;10.40;68.10;;;;;;5072776;28;20016;-74
2021/09/30 04:18:18;;;;;;;3.75;1.40;;;10.40;68.20;;;;;;5072694;28;20028;-74
2021/09/30 04:20:44;;;;;;;1.83;1.13;;;10.50;68.30;;;;;;5073162;28;20439;-76
2021/09/30 04:23:10;;;;;;;3.97;1.33;;;10.40;68.40;;;;;;5072800;28;20029;-76
2021/09/30 04:25:37;;;;;;;3.22;1.27;;;10.40;68.40;;;;;;5072133;28;20024;-76
2021/09/30 04:28:03;;;;;;;3.67;1.25;;;10.40;68.70;;;;;;5072708;28;20017;-76
2021/09/30 04:30:29;;;;;;;2.90;1.08;;;10.40;68.40;;;;;;5072385;28;20401;-76
2021/09/30 04:32:54;;;;;;;2.72;1.20;;;10.40;68.40;;;;;;5072463;28;20032;-75
2021/09/30 04:35:20;;;;;;;2.85;1.20;;;10.40;68.50;;;;;;5059416;28;20064;-75
2021/09/30 04:37:47;;;;;;;1.98;0.98;;;10.40;68.50;;;;;;5071973;28;20400;-75
2021/09/30 04:40:13;;;;;;;1.90;1.13;;;10.30;68.10;;;;;;5071753;28;20127;-75
2021/09/30 04:42:39;;;;;;;3.10;1.02;;;10.30;68.50;;;;;;5053405;28;20021;-75
2021/09/30 04:45:05;;;;;;;3.03;1.20;;;10.30;68.80;;;;;;5072267;28;20035;-75
2021/09/30 04:47:31;;;;;;;2.08;1.17;;;10.30;68.60;;;;;;5072814;28;20043;-74
2021/09/30 04:49:56;;;;;;;2.53;1.05;;;10.30;68.70;;;;;;5071949;28;20036;-74
2021/09/30 04:52:22;;;;;;;2.78;1.15;;;10.30;68.60;;;;;;5072002;28;20036;-75
2021/09/30 04:54:48;;;;;;;2.40;1.00;;;10.30;68.80;;;;;;5071815;28;20093;-74
2021/09/30 04:57:14;;;;;;;4.03;1.27;;;10.30;68.50;;;;;;5052832;28;20509;-75
2021/09/30 04:59:40;;;;;;;3.92;1.33;;;10.20;68.60;;;;;;5072122;28;20039;-75
2021/09/30 05:02:06;;;;;;;4.32;1.23;;;10.20;68.50;;;;;;5071215;28;20031;-75
2021/09/30 05:04:31;;;;;;;2.65;1.00;;;10.20;68.80;;;;;;5071778;28;20056;-75
2021/09/30 05:06:57;;;;;;;2.78;0.93;;;10.20;68.90;;;;;;5071934;28;20112;-75
2021/09/30 05:09:24;;;;;;;5.28;1.10;;;10.20;68.90;;;;;;5071313;28;20042;-75
2021/09/30 05:11:58;;;;;;;4.72;1.08;;;10.20;68.90;;;;;;5071804;28;20020;-75
2021/09/30 05:14:24;;;;;;;4.00;1.17;;;10.20;69.10;;;;;;5056696;28;20032;-74
2021/09/30 05:16:52;;;;;;;4.82;1.20;;;10.20;69.00;;;;;;5071334;28;20538;-75
2021/09/30 05:19:17;;;;;;;2.45;1.15;;;10.10;68.90;;;;;;5071126;28;20058;-75
2021/09/30 05:21:43;;;;;;;4.60;1.55;;;10.10;69.00;;;;;;5071494;28;20024;-75
2021/09/30 05:24:09;;;;;;;2.92;1.02;;;10.10;69.00;;;;;;5071335;28;20062;-75
2021/09/30 05:26:34;;;;;;;2.72;1.30;;;10.10;69.10;;;;;;5072022;28;20099;-78
2021/09/30 05:29:01;;;;;;;4.32;1.15;;;10.00;68.90;;;;;;5071217;28;20039;-73
2021/09/30 05:31:28;;;;;;;2.38;1.00;;;9.90;69.10;;;;;;5071138;28;20020;-75
2021/09/30 05:33:54;;;;;;;4.55;1.33;;;9.80;68.80;;;;;;5054172;28;20428;-75
2021/09/30 05:36:19;;;;;;;2.90;1.30;;;9.70;69.40;;;;;;5071297;28;20021;-75
2021/09/30 05:38:45;;;;;;;2.45;0.90;;;9.80;69.80;;;;;;5071038;28;20056;-75
2021/09/30 05:41:11;;;;;;;5.35;1.40;;;9.80;69.60;;;;;;5071022;28;20534;-75
2021/09/30 05:43:38;;;;;;;3.67;1.20;;;9.90;69.30;;;;;;5070708;28;20028;-74
2021/09/30 05:46:06;;;;;;;3.28;1.42;;;9.80;69.40;;;;;;5071280;28;20017;-76
2021/09/30 05:48:31;;;;;;;3.08;1.20;;;9.90;69.70;;;;;;5066360;28;20020;-76
2021/09/30 05:50:57;;;;;;;2.15;1.15;;;10.00;70.20;;;;;;5069414;28;20473;-76
2021/09/30 05:53:23;;;;;;;4.38;1.10;;;10.10;69.90;;;;;;5055824;28;20482;-76
2021/09/30 05:55:49;;;;;;;3.58;1.48;;;10.10;69.70;;;;;;5053219;28;20024;-76
2021/09/30 05:58:16;;;;;;;4.03;1.23;;;10.10;68.90;;;;;;5065569;28;20031;-76
2021/09/30 06:01:00;;;;;;;1.98;1.00;;;10.10;68.80;;;;;;5070811;28;20028;-76
2021/09/30 06:14:15;;;;;;;4.30;1.13;;;9.90;69.00;;;;;;5084338;28;20047;-77
2021/09/30 06:16:49;;;;;;;2.75;1.13;;;9.90;69.20;;;;;;5078595;28;20051;-76
2021/09/30 06:19:21;;;;;;;3.05;1.42;;;10.00;69.20;;;;;;5064132;28;20048;-77
2021/09/30 06:21:51;;;;;;;3.00;1.05;;;10.00;69.10;;;;;;5079522;28;20073;-77
2021/09/30 06:24:20;;;;;;;4.50;1.55;;;10.00;69.50;;;;;;5079446;28;20040;-76
2021/09/30 06:26:47;;;;;;;4.90;1.10;;;10.00;68.90;;;;;;5073636;28;20074;-77
2021/09/30 06:29:13;;;;;;;4.55;1.52;;;9.90;69.20;;;;;;5074550;28;20047;-76
2021/09/30 06:31:39;;;;;;;5.63;1.52;;;9.90;69.40;;;;;;5071169;28;20013;-78
2021/09/30 06:34:05;;;;;;;3.45;1.17;;;10.00;69.50;;;;;;5065545;28;20115;-77
2021/09/30 06:36:31;;;;;;;3.17;1.02;;;10.20;69.60;;;;;;5073344;28;20161;-77
2021/09/30 06:38:57;;;;;;;5.15;1.50;;;10.30;69.60;;;;;;5057969;28;20048;-77
2021/09/30 06:41:22;;;;;;;4.35;1.23;;;10.50;69.20;;;;;;5068917;28;20044;-77
2021/09/30 06:43:48;;;;;;;2.50;1.15;;;10.70;69.30;;;;;;5071383;28;20025;-77
2021/09/30 06:46:14;;;;;;;4.28;1.50;;;11.00;69.00;;;;;;5074049;28;20047;-77
2021/09/30 06:48:40;;;;;;;5.72;1.40;;;11.20;68.90;;;;;;5074261;28;20017;-77
2021/09/30 06:51:06;;;;;;;5.60;1.38;;;11.60;68.50;;;;;;5074067;28;20051;-75
2021/09/30 06:53:32;;;;;;;4.45;1.75;;;11.80;67.60;;;;;;5075001;28;20029;-76
2021/09/30 06:56:18;;;;;;;4.85;1.35;;;11.90;67.30;;;;;;5060048;28;20397;-76
2021/09/30 06:58:45;;;;;;;5.15;1.33;;;12.20;66.90;;;;;;5074065;28;20029;-76
2021/09/30 07:01:13;;;;;;;4.40;1.10;;;12.40;66.60;;;;;;5074042;28;20028;-76
2021/09/30 07:03:39;;;;;;;5.30;1.58;;;12.60;66.00;;;;;;5074066;28;20435;-76
2021/09/30 07:06:06;;;;;;;5.43;1.40;;;12.80;65.80;;;;;;5074152;28;20031;-75
2021/09/30 07:08:32;;;;;;;4.68;1.33;;;13.00;65.60;;;;;;5074760;28;20111;-75
2021/09/30 07:10:58;;;;;;;4.85;1.38;;;13.30;64.80;;;;;;5073497;28;20541;-75
2021/09/30 07:13:25;;;;;;;6.70;1.45;;;13.30;63.50;;;;;;5073774;28;20056;-74
2021/09/30 07:15:51;;;;;;;3.40;1.35;;;13.10;63.10;;;;;;5073158;28;20028;-77
2021/09/30 07:18:19;;;;;;;3.63;1.30;;;13.20;64.30;;;;;;5056056;28;20040;-74
2021/09/30 07:20:53;;;;;;;4.32;1.55;;;13.20;64.10;;;;;;5073643;28;20033;-77
2021/09/30 07:23:20;;;;;;;6.72;1.60;;;13.20;63.60;;;;;;5072830;28;20374;-76
2021/09/30 07:25:46;;;;;;;6.22;1.83;;;13.20;63.60;;;;;;5069181;28;20035;-77
2021/09/30 07:28:12;;;;;;;4.35;1.30;;;13.20;63.70;;;;;;5043319;28;20147;-74
2021/09/30 07:30:38;;;;;;;4.68;1.33;;;13.20;63.50;;;;;;5065382;28;20028;-76
2021/09/30 07:33:05;;;;;;;6.97;1.77;;;13.20;63.70;;;;;;5048888;28;20133;-76
2021/09/30 07:35:31;;;;;;;4.43;1.65;;;13.30;64.20;;;;;;5069780;28;20020;-74
2021/09/30 07:37:57;;;;;;;3.67;1.13;;;13.50;64.40;;;;;;5068325;28;20032;-70
2021/09/30 07:40:23;;;;;;;6.22;1.45;;;13.70;63.80;;;;;;5071929;28;20401;-71
2021/09/30 07:42:50;;;;;;;22.50;9.02;;;14.00;63.60;;;;;;5068622;28;20032;-79
2021/09/30 07:45:15;;;;;;;6.80;2.60;;;14.20;63.00;;;;;;5070508;28;20025;-75
2021/09/30 07:47:42;;;;;;;7.28;2.40;;;14.30;62.60;;;;;;5072138;28;20024;-76
2021/09/30 07:50:08;;;;;;;6.03;1.67;;;14.40;62.60;;;;;;5071737;28;20089;-76
2021/09/30 07:52:34;;;;;;;7.15;1.80;;;14.40;61.00;;;;;;5070667;28;20032;-76
2021/09/30 07:55:01;;;;;;;7.50;1.73;;;14.40;62.10;;;;;;5051813;28;20055;-76
2021/09/30 07:57:27;;;;;;;4.50;1.63;;;14.70;62.50;;;;;;5070492;28;20013;-76
2021/09/30 07:59:53;;;;;;;9.00;2.00;;;14.90;61.00;;;;;;5070364;28;20485;-76
2021/09/30 08:02:19;;;;;;;6.60;1.60;;;15.00;60.80;;;;;;5070974;28;20097;-73
2021/09/30 08:04:44;;;;;;;6.80;1.55;;;15.10;60.10;;;;;;5069219;28;20447;-73
2021/09/30 08:07:10;;;;;;;6.13;1.33;;;15.30;61.90;;;;;;5069815;28;20074;-71
2021/09/30 08:09:36;;;;;;;6.55;1.70;;;15.40;59.80;;;;;;5070251;28;20078;-75
2021/09/30 08:12:03;;;;;;;6.10;1.67;;;15.40;59.90;;;;;;5069633;28;20016;-75
2021/09/30 08:14:29;;;;;;;7.00;1.90;;;15.60;60.50;;;;;;5068631;28;20078;-74
2021/09/30 08:16:54;;;;;;;7.30;1.83;;;15.90;60.90;;;;;;5069275;28;20501;-74
2021/09/30 08:19:20;;;;;;;6.97;1.90;;;16.40;60.80;;;;;;5069967;28;20484;-74
2021/09/30 08:21:46;;;;;;;9.38;1.70;;;16.70;59.60;;;;;;5051344;28;20037;-75
2021/09/30 08:24:17;;;;;;;3.67;1.50;;;16.70;57.90;;;;;;5071161;28;20066;-74
2021/09/30 08:26:45;;;;;;;6.38;1.20;;;16.90;58.60;;;;;;5068360;28;20035;-78
2021/09/30 08:29:12;;;;;;;4.57;1.10;;;16.90;56.70;;;;;;5073552;28;20082;-81
2021/09/30 08:31:38;;;;;;;4.18;1.00;;;17.00;57.10;;;;;;5059540;28;20493;-81
2021/09/30 08:34:04;;;;;;;3.42;0.90;;;17.00;56.50;;;;;;5072970;28;20024;-80
2021/09/30 08:36:31;;;;;;;4.78;1.10;;;17.00;56.70;;;;;;5079781;28;20041;-83
2021/09/30 08:38:57;;;;;;;4.78;1.40;;;17.10;57.40;;;;;;5073924;28;20048;-77
2021/09/30 08:41:23;;;;;;;4.80;1.35;;;17.40;57.90;;;;;;5073534;28;20377;-74
2021/09/30 08:43:50;;;;;;;5.93;1.10;;;17.70;55.40;;;;;;5059014;28;20481;-74
2021/09/30 08:46:17;;;;;;;4.15;0.88;;;17.40;55.20;;;;;;5066589;28;20028;-75
2021/09/30 08:48:43;;;;;;;3.78;0.95;;;17.60;55.70;;;;;;5063274;28;20013;-70
2021/09/30 08:51:11;;;;;;;3.95;1.00;;;17.80;55.20;;;;;;5068177;28;20024;-70
2021/09/30 08:53:37;;;;;;;3.92;1.00;;;18.10;54.70;;;;;;5071526;28;20028;-70
2021/09/30 08:56:05;;;;;;;2.63;0.90;;;18.40;55.30;;;;;;5071267;28;20020;-70
2021/09/30 08:58:31;;;;;;;4.75;1.20;;;18.60;53.70;;;;;;5071054;28;20029;-72
2021/09/30 09:01:00;;;;;;;3.65;1.40;;;18.80;54.80;;;;;;5071364;28;20024;-70
2021/09/30 09:03:57;;;;;;;4.38;1.10;;;19.00;52.90;;;;;;5071502;28;20016;-72
2021/09/30 09:06:29;;;;;;;4.38;1.17;;;19.30;53.20;;;;;;5052276;28;20107;-72
2021/09/30 09:09:23;;;;;;;4.53;1.40;;;19.70;51.90;;;;;;5070826;28;20031;-73
2021/09/30 09:11:49;;;;;;;3.90;1.27;;;19.80;51.70;;;;;;5071796;28;20021;-73
2021/09/30 09:14:27;;;;;;;4.72;1.20;;;19.80;50.40;;;;;;5056998;28;20501;-73
2021/09/30 09:16:58;;;;;;;3.00;0.93;;;19.80;51.20;;;;;;5071270;28;20042;-72
2021/09/30 09:19:40;;;;;;;3.95;1.17;;;20.00;51.10;;;;;;5070535;28;20032;-72
2021/09/30 09:22:06;;;;;;;2.75;1.00;;;20.00;50.40;;;;;;5071371;28;20017;-71
2021/09/30 09:24:32;;;;;;;5.93;1.17;;;20.20;51.10;;;;;;5071061;28;20040;-72
2021/09/30 09:26:59;;;;;;;2.47;1.00;;;20.30;50.20;;;;;;5071416;28;20043;-72
2021/09/30 09:29:30;;;;;;;4.72;0.98;;;20.10;49.60;;;;;;5068996;28;20032;-73
2021/09/30 09:31:55;;;;;;;4.93;1.13;;;20.30;51.20;;;;;;5070898;28;20021;-72
2021/09/30 09:34:23;;;;;;;5.10;1.00;;;20.30;49.30;;;;;;5071159;28;20020;-72
2021/09/30 09:36:51;;;;;;;3.10;0.90;;;20.30;48.40;;;;;;5069636;28;20016;-73
2021/09/30 09:39:31;;;;;;;3.00;0.90;;;20.20;48.10;;;;;;5052268;28;20509;-73
2021/09/30 09:42:09;;;;;;;4.63;0.80;;;20.50;49.10;;;;;;5069568;28;20068;-73
2021/09/30 09:44:56;;;;;;;3.20;0.70;;;20.90;48.50;;;;;;5070627;28;20481;-70
2021/09/30 09:47:30;;;;;;;2.75;0.85;;;20.90;47.30;;;;;;5070795;28;20109;-70
2021/09/30 09:50:22;;;;;;;3.30;0.85;;;21.00;46.90;;;;;;5071057;28;20052;-70
2021/09/30 09:52:56;;;;;;;4.28;0.60;;;21.60;48.30;;;;;;5070113;28;20033;-75
2021/09/30 09:55:30;;;;;;;3.00;0.60;;;21.70;44.80;;;;;;5070939;28;20031;-73
2021/09/30 09:58:08;;;;;;;3.53;0.68;;;21.80;45.90;;;;;;5070449;28;20537;-73
2021/09/30 10:00:50;;;;;;;3.78;0.68;;;21.60;44.80;;;;;;5070873;28;20450;-74
2021/09/30 10:03:20;;;;;;;1.35;0.60;;;21.90;43.10;;;;;;5054414;28;20025;-72
2021/09/30 10:05:46;;;;;;;3.80;1.10;;;21.90;42.90;;;;;;5071311;28;20366;-71
2021/09/30 10:08:14;;;;;;;2.80;0.70;;;22.30;41.50;;;;;;5070580;28;20099;-70
2021/09/30 10:10:41;;;;;;;2.17;0.82;;;22.40;42.60;;;;;;5070775;28;20545;-70
2021/09/30 10:13:07;;;;;;;3.38;0.98;;;22.90;42.90;;;;;;5070731;28;20499;-72
2021/09/30 10:15:35;;;;;;;2.55;0.77;;;22.80;41.40;;;;;;5068882;28;20028;-74
2021/09/30 10:18:05;;;;;;;5.30;0.90;;;23.00;41.20;;;;;;5063799;28;20050;-75
2021/09/30 10:20:32;;;;;;;7.13;2.22;;;23.20;40.00;;;;;;5072797;28;20033;-77
2021/09/30 10:22:58;;;;;;;7.03;2.20;;;23.60;42.90;;;;;;5070074;28;20067;-77
2021/09/30 10:25:37;;;;;;;2.40;1.10;;;23.60;39.90;;;;;;5063689;28;20059;-72
2021/09/30 10:28:07;;;;;;;1.70;0.73;;;24.20;40.90;;;;;;5070969;28;20474;-72
2021/09/30 10:30:37;;;;;;;2.42;0.77;;;24.40;39.90;;;;;;5071230;28;20043;-73
2021/09/30 10:33:06;;;;;;;2.33;0.80;;;25.00;38.80;;;;;;5070884;28;20027;-72
2021/09/30 10:35:37;;;;;;;2.35;0.80;;;24.80;37.40;;;;;;5055991;28;20029;-72
2021/09/30 10:38:18;;;;;;;3.15;1.00;;;24.70;38.70;;;;;;5070030;28;20101;-72
2021/09/30 10:41:05;;;;;;;3.65;0.70;;;24.30;39.40;;;;;;5067285;28;20117;-68
2021/09/30 10:43:41;;;;;;;2.95;0.80;;;24.60;40.50;;;;;;5070353;28;20497;-69
2021/09/30 10:46:08;;;;;;;2.13;0.63;;;25.40;38.70;;;;;;5070947;28;20032;-70
2021/09/30 10:48:34;;;;;;;7.88;1.00;;;25.60;38.40;;;;;;5071038;28;20013;-72
2021/09/30 10:51:07;;;;;;;2.65;0.93;;;25.60;37.50;;;;;;5070883;28;20389;-71
2021/09/30 10:53:45;;;;;;;3.90;0.90;;;25.40;36.90;;;;;;5071659;28;20063;-69
2021/09/30 10:56:39;;;;;;;2.00;0.68;;;24.90;36.60;;;;;;5070787;28;20029;-69
2021/09/30 10:59:07;;;;;;;3.25;0.70;;;24.20;37.10;;;;;;5072076;28;20016;-69
2021/09/30 11:01:48;;;;;;;2.67;0.90;;;24.00;37.00;;;;;;5074417;28;20029;-69
2021/09/30 11:04:15;;;;;;;2.78;0.75;;;24.00;38.10;;;;;;5074504;28;20075;-69
2021/09/30 11:06:41;;;;;;;2.85;0.68;;;24.10;36.20;;;;;;5074628;28;20024;-69
2021/09/30 11:09:16;;;;;;;2.65;0.63;;;24.10;37.10;;;;;;5074494;28;20039;-69
2021/09/30 11:11:44;;;;;;;2.80;0.70;;;24.10;38.00;;;;;;5070548;28;20488;-70
2021/09/30 11:14:10;;;;;;;2.90;0.90;;;24.60;37.70;;;;;;5074266;28;20047;-69
2021/09/30 11:16:41;;;;;;;2.55;0.70;;;24.80;36.60;;;;;;5060716;28;20028;-68
2021/09/30 11:19:30;;;;;;;2.65;0.68;;;24.80;35.90;;;;;;5074130;28;20556;-69
2021/09/30 11:22:01;;;;;;;3.03;0.70;;;24.20;36.10;;;;;;5074061;28;20055;-69
2021/09/30 11:24:34;;;;;;;2.25;0.80;;;24.40;36.40;;;;;;5074300;28;20021;-69
2021/09/30 11:27:05;;;;;;;6.15;0.80;;;24.40;35.40;;;;;;5072359;28;20039;-69
2021/09/30 11:29:30;;;;;;;2.92;0.65;;;24.00;35.10;;;;;;5071021;28;20457;-70
2021/09/30 11:31:56;;;;;;;2.60;0.85;;;24.40;35.10;;;;;;5072679;28;20096;-69
2021/09/30 11:34:37;;;;;;;2.00;0.70;;;24.80;34.70;;;;;;5073493;28;20025;-70
2021/09/30 11:37:27;;;;;;;2.65;0.57;;;25.20;35.80;;;;;;5073924;28;20062;-69
2021/09/30 11:39:56;;;;;;;1.25;0.52;;;25.30;35.10;;;;;;5073296;28;20064;-70
2021/09/30 11:42:36;;;;;;;2.42;0.70;;;25.40;34.00;;;;;;5074015;28;20024;-70
2021/09/30 11:45:17;;;;;;;2.20;0.60;;;25.50;34.70;;;;;;5057270;28;20082;-68
2021/09/30 11:47:44;;;;;;;2.30;0.70;;;25.70;34.80;;;;;;5070123;28;20016;-75
2021/09/30 11:50:22;;;;;;;2.67;0.80;;;26.10;32.70;;;;;;5079730;28;20488;-75
2021/09/30 11:53:01;;;;;;;4.28;0.95;;;26.50;33.50;;;;;;5079220;28;20436;-74
2021/09/30 11:55:27;;;;;;;1.48;0.60;;;27.10;33.00;;;;;;5076757;28;20064;-75
2021/09/30 11:58:00;;;;;;;2.70;0.82;;;27.30;32.50;;;;;;5075186;28;20027;-75
2021/09/30 12:00:26;;;;;;;3.58;0.88;;;27.60;32.00;;;;;;5075380;28;20051;-75
2021/09/30 12:02:53;;;;;;;1.67;0.73;;;28.00;32.60;;;;;;5072363;28;20032;-75
2021/09/30 12:05:19;;;;;;;2.30;0.88;;;28.70;31.60;;;;;;5072863;28;20059;-75
2021/09/30 12:07:45;;;;;;;3.25;0.85;;;28.60;29.30;;;;;;5070793;28;20017;-76
2021/09/30 12:10:14;;;;;;;2.38;0.90;;;28.60;30.00;;;;;;5070509;28;20029;-73
2021/09/30 12:12:43;;;;;;;2.55;0.80;;;29.50;29.90;;;;;;5071621;28;20472;-73
2021/09/30 12:15:09;;;;;;;2.97;0.90;;;30.50;29.40;;;;;;5071447;28;20500;-74
2021/09/30 12:17:37;;;;;;;2.47;0.60;;;31.70;27.70;;;;;;5076472;28;20540;-76
2021/09/30 12:20:08;;;;;;;4.70;0.70;;;32.10;26.90;;;;;;5071507;28;20031;-75
2021/09/30 12:22:39;;;;;;;3.08;0.90;;;31.90;25.90;;;;;;5073038;28;20021;-74
2021/09/30 12:25:07;;;;;;;1.73;0.70;;;32.50;26.70;;;;;;5073356;28;20035;-76
2021/09/30 12:27:35;;;;;;;1.08;0.60;;;34.20;25.10;;;;;;5071301;28;20028;-76
2021/09/30 12:30:14;;;;;;;2.85;0.80;;;32.70;22.50;;;;;;5072493;28;20039;-75
2021/09/30 12:32:46;;;;;;;1.08;0.70;;;32.20;24.80;;;;;;5057686;28;20474;-75
2021/09/30 12:35:28;;;;;;;2.90;0.60;;;32.10;24.30;;;;;;5060769;28;20029;-75
2021/09/30 12:37:59;;;;;;;2.03;0.60;;;30.30;24.50;;;;;;5069911;28;20490;-75
2021/09/30 12:40:28;;;;;;;3.17;0.77;;;29.70;25.80;;;;;;5072230;28;20032;-75
2021/09/30 12:43:05;;;;;;;1.48;0.50;;;28.60;26.30;;;;;;5072185;28;20048;-75
2021/09/30 12:45:35;;;;;;;2.10;0.50;;;27.50;27.40;;;;;;5054234;28;20070;-75
2021/09/30 12:48:06;;;;;;;2.58;0.55;;;27.10;29.00;;;;;;5056185;28;20490;-75
2021/09/30 12:50:40;;;;;;;2.78;0.65;;;26.40;28.70;;;;;;5072722;28;20497;-75
2021/09/30 12:53:07;;;;;;;2.75;0.70;;;25.40;30.20;;;;;;5042862;28;20035;-75
2021/09/30 12:55:33;;;;;;;2.22;0.60;;;24.90;30.30;;;;;;5060867;28;20482;-75
2021/09/30 12:58:00;;;;;;;2.63;0.68;;;24.60;31.90;;;;;;5060810;28;20035;-75
2021/09/30 13:00:32;;;;;;;3.08;0.88;;;24.50;32.20;;;;;;5070040;28;20032;-75
2021/09/30 13:03:10;;;;;;;2.28;0.65;;;24.40;33.30;;;;;;5055284;28;20029;-76
2021/09/30 13:05:49;;;;;;;2.13;0.60;;;23.80;32.50;;;;;;5057130;28;20521;-75
2021/09/30 13:08:35;;;;;;;1.92;0.65;;;23.70;33.10;;;;;;5071921;28;20021;-75
2021/09/30 13:11:23;;;;;;;2.17;0.80;;;23.70;34.80;;;;;;5069938;28;20021;-75
2021/09/30 13:14:14;;;;;;;2.80;0.70;;;24.20;34.80;;;;;;5072030;28;20112;-75
2021/09/30 13:16:41;;;;;;;3.58;0.60;;;24.40;34.40;;;;;;5071358;28;20055;-75
2021/09/30 13:19:06;;;;;;;2.53;0.77;;;24.50;33.50;;;;;;5076028;28;20055;-75
2021/09/30 13:21:59;;;;;;;3.05;0.70;;;24.00;33.10;;;;;;5069845;28;20036;-75
2021/09/30 13:24:26;;;;;;;2.90;0.85;;;23.70;34.70;;;;;;5057750;28;20081;-74
2021/09/30 13:26:52;;;;;;;3.60;0.70;;;23.60;34.80;;;;;;5071877;28;20031;-76
2021/09/30 13:29:18;;;;;;;4.05;0.57;;;23.50;35.40;;;;;;5072247;28;20021;-75
2021/09/30 13:31:44;;;;;;;3.97;0.77;;;23.10;35.60;;;;;;5071832;28;20036;-75
2021/09/30 13:34:09;;;;;;;3.55;0.47;;;22.90;35.60;;;;;;5071948;28;20519;-75
2021/09/30 13:36:35;;;;;;;2.08;0.70;;;22.50;36.70;;;;;;5071491;28;20556;-75
2021/09/30 13:39:00;;;;;;;2.45;0.60;;;22.30;37.20;;;;;;5055054;28;20056;-74
2021/09/30 13:41:29;;;;;;;3.38;0.70;;;22.30;37.30;;;;;;5072126;28;20489;-74
2021/09/30 13:43:54;;;;;;;4.97;1.02;;;22.30;37.50;;;;;;5070548;28;20021;-75
2021/09/30 13:46:20;;;;;;;1.17;0.50;;;22.20;37.70;;;;;;5070967;28;20029;-75
2021/09/30 13:48:45;;;;;;;3.25;0.73;;;22.10;38.10;;;;;;5071527;28;20029;-75
2021/09/30 13:51:11;;;;;;;4.13;0.82;;;22.10;38.30;;;;;;5071164;28;20040;-74
2021/09/30 13:53:37;;;;;;;2.15;0.60;;;22.00;38.80;;;;;;5072094;28;20025;-74
2021/09/30 13:56:02;;;;;;;2.15;0.60;;;21.80;38.70;;;;;;5076709;28;20381;-75
2021/09/30 13:58:29;;;;;;;4.82;0.80;;;21.70;39.40;;;;;;5072281;28;20028;-75
2021/09/30 14:00:55;;;;;;;3.58;0.77;;;21.60;39.20;;;;;;5071256;28;20040;-75
2021/09/30 14:03:21;;;;;;;2.50;0.60;;;21.50;39.80;;;;;;5071539;28;20020;-75
2021/09/30 14:05:46;;;;;;;3.17;0.43;;;21.40;39.70;;;;;;5071735;28;20089;-75
2021/09/30 14:08:12;;;;;;;2.35;0.73;;;21.30;39.70;;;;;;5071105;28;20484;-74
2021/09/30 14:10:38;;;;;;;2.80;0.50;;;21.20;39.60;;;;;;5071367;28;20045;-74
2021/09/30 14:13:04;;;;;;;2.80;0.52;;;21.10;39.90;;;;;;5071394;28;20404;-74
2021/09/30 14:15:30;;;;;;;2.15;0.50;;;21.10;40.50;;;;;;5070955;28;20209;-75
2021/09/30 14:17:55;;;;;;;3.47;0.47;;;21.10;40.00;;;;;;5070103;28;20095;-74
2021/09/30 14:20:21;;;;;;;2.28;0.50;;;21.10;40.20;;;;;;5070090;28;20119;-75
2021/09/30 14:22:46;;;;;;;1.10;0.30;;;21.10;40.80;;;;;;5069862;28;20501;-74
2021/09/30 14:25:14;;;;;;;1.00;0.30;;;21.00;39.30;;;;;;5070807;28;20024;-74
2021/09/30 14:27:40;;;;;;;1.77;0.45;;;20.70;39.70;;;;;;5074799;28;20021;-74
2021/09/30 14:30:08;;;;;;;1.85;0.50;;;20.60;40.30;;;;;;5080330;28;20039;-74
2021/09/30 14:32:34;;;;;;;3.70;0.45;;;20.50;40.40;;;;;;5084028;28;20017;-75
2021/09/30 14:35:00;;;;;;;1.85;0.55;;;20.40;40.80;;;;;;5075666;28;20038;-74
2021/09/30 14:37:26;;;;;;;3.03;0.50;;;20.30;41.50;;;;;;5053583;28;20108;-75
2021/09/30 14:39:52;;;;;;;1.42;0.40;;;20.30;41.60;;;;;;5062039;28;20044;-75
2021/09/30 14:42:18;;;;;;;3.58;0.60;;;20.40;42.20;;;;;;5074685;28;20017;-75
2021/09/30 14:44:46;;;;;;;1.77;0.32;;;20.40;41.70;;;;;;5081295;28;20035;-74
2021/09/30 14:47:12;;;;;;;2.25;0.55;;;20.40;42.10;;;;;;5081608;28;20016;-75
2021/09/30 14:49:41;;;;;;;2.92;0.43;;;20.40;42.20;;;;;;5081318;28;20025;-75
2021/09/30 14:52:12;;;;;;;2.13;0.50;;;20.30;42.00;;;;;;5076926;28;20035;-75
2021/09/30 14:54:38;;;;;;;1.50;0.40;;;20.20;42.60;;;;;;5087040;28;20048;-75
2021/09/30 14:57:04;;;;;;;2.17;0.65;;;20.20;42.80;;;;;;5078492;28;20098;-74
2021/09/30 14:59:30;;;;;;;1.67;0.40;;;20.20;43.20;;;;;;5085978;28;20119;-74
2021/09/30 15:01:56;;;;;;;0.88;0.40;;;20.20;42.80;;;;;;5086848;28;20078;-75
2021/09/30 15:04:22;;;;;;;3.30;0.60;;;20.20;43.30;;;;;;5076827;28;20028;-75
2021/09/30 15:06:49;;;;;;;2.63;0.40;;;20.20;43.50;;;;;;5065729;28;20028;-75
2021/09/30 15:09:16;;;;;;;1.70;0.40;;;20.30;43.70;;;;;;5077154;28;20025;-75
2021/09/30 15:11:41;;;;;;;2.45;0.40;;;20.40;43.40;;;;;;5085408;28;20020;-75
2021/09/30 15:14:08;;;;;;;4.00;0.60;;;20.40;43.30;;;;;;5077858;28;20485;-77
2021/09/30 15:16:39;;;;;;;3.50;0.77;;;20.40;43.70;;;;;;5077876;28;20071;-76
2021/09/30 15:19:15;;;;;;;2.78;0.57;;;20.40;43.50;;;;;;5078092;28;20028;-77
2021/09/30 15:21:41;;;;;;;0.98;0.35;;;20.30;43.30;;;;;;5068374;28;20047;-77
2021/09/30 15:24:07;;;;;;;1.88;0.30;;;20.20;43.70;;;;;;5085599;28;20029;-73
2021/09/30 15:26:34;;;;;;;1.83;0.50;;;20.20;44.20;;;;;;5075759;28;20043;-70
2021/09/30 15:29:00;;;;;;;2.58;0.40;;;20.30;44.10;;;;;;5078103;28;20070;-74
2021/09/30 15:31:27;;;;;;;2.42;0.60;;;20.40;44.20;;;;;;5067192;28;20059;-72
2021/09/30 15:33:54;;;;;;;1.85;0.47;;;20.20;43.80;;;;;;5072102;28;20016;-73
2021/09/30 15:36:25;;;;;;;2.95;0.73;;;20.00;43.80;;;;;;5073225;28;20025;-73
2021/09/30 15:38:51;;;;;;;1.60;0.40;;;19.90;44.40;;;;;;5055859;28;20056;-69
2021/09/30 15:41:18;;;;;;;1.88;0.40;;;19.80;44.40;;;;;;5059177;28;20029;-71
2021/09/30 15:43:44;;;;;;;1.30;0.38;;;19.70;44.30;;;;;;5058615;28;20029;-71
2021/09/30 15:46:10;;;;;;;2.65;0.60;;;19.50;45.00;;;;;;5055456;28;20859;-71
2021/09/30 15:48:35;;;;;;;1.52;0.35;;;19.50;45.50;;;;;;5066489;28;20029;-70
2021/09/30 15:51:01;;;;;;;2.10;0.40;;;19.50;45.90;;;;;;5057433;28;20031;-69
2021/09/30 15:53:27;;;;;;;1.50;0.50;;;19.50;45.60;;;;;;5061354;28;20036;-70